Terminal Aerodrome Forecast
Issued by NWS

Home | Current Version | Previous Version | Text Only | Print | Product List | Glossary On
Versions: 1 2 3 4 5 6 7 8 9 10 11 12 13 14 15 16 17
000
FTUS46 KLOX 122300
TAFSBA
TAF
KSBA 122334Z 1300/1324 27009KT P6SM SCT200
     FM130300 VRB03KT P6SM SCT200
     FM130800 10006KT P6SM SCT200
     FM131700 15007KT P6SM SCT200
     FM132000 24008KT P6SM SCT200=

USA.gov is the U.S. government's official web portal to all federal, state and local government web resources and services.